ADDS TAF Data INFO
IDs: Format: Raw Decoded Include METARs

Data at: 0558 UTC 18 Jan 2018

METAR for:MWCR (Grand Cayman/Roberts, --, GC)
Text:MWCR 180300Z 03012KT 9999 BKN016 SCT040 25/22 Q1019
Temperature: 25.0°C ( 77°F)
Dewpoint: 22.0°C ( 72°F) [RH = 83%]
Pressure (altimeter):30.09 inches Hg (1019.0 mb)
Winds:from the NNE (30 degrees) at 14 MPH (12 knots; 6.2 m/s)
Visibility:6 or more sm (10+ km)
Ceiling:1600 feet AGL
Clouds: broken clouds at 1600 feet AGL, scattered clouds at 4000 feet AGL

TAF for:MWCR (Grand Cayman/Roberts, --, GC) issued at 2300 UTC 17 Jan 2018
Text:TAF MWCR 172300Z 1800/1824 04015G25KT 9999 VCSH SCT016 BKN035
Forecast period:0000 UTC 18 January 2018 to 0000 UTC 19 January 2018
Forecast type:FROM: standard forecast or significant change
Winds:from the NE (40 degrees) at 17 MPH (15 knots; 7.7 m/s) gusting to 29 MPH (25 knots; 12.9 m/s)
Visibility:6 or more sm (10+ km)
Ceiling:3500 feet AGL
Clouds: scattered clouds at 1600 feet AGL, broken clouds at 3500 feet AGL
Weather:VCSH (showers in vicinity)